EKVJ/STA METAR and TAF weather

Enter ICAO airport designator
Station Type Date Time Source
EKVJ METAR 2018/07/20 13:50 UTC NOAA

EKVJ 201350Z 29009KT 250V340 CAVOK 21/16 Q1015


Station Type Date Time Source
EKVJ Decoded METAR 2018/07/20 13:50 UTC NOAA

Stauning Lufthavn, Denmark (EKVJ) 56-00N 008-21E 5M
Jul 20, 2018 - 09:50 AM EDT / 2018.07.20 1350 UTC
Wind: from the WNW (290 degrees) at 10 MPH (9 KT) (direction variable):0
Visibility: greater than 7 mile(s):0
Temperature: 69 F (21 C)
Dew Point: 60 F (16 C)
Relative Humidity: 73%
Pressure (altimeter): 29.97 in. Hg (1015 hPa)
ob: EKVJ 201350Z 29009KT 250V340 CAVOK 21/16 Q1015
cycle: 14

Station Type Date Time Source
EKVJ TAF UTC NOAA

Error!


Example: see airport list